Hlavní strana
METAR-TAF:

METAR-TAF

Letiště :

Linköping, Švédsko

zeměpisná šířka: 58-24N, zeměpisná délka: 015-41E, výška: 52 m

Aktuální stav počasí

Zpráva byla vytvořena před 39 minutami, v 04:50 UTC
Jihojihovýchodní vítr 5 kt, proměnlivý mezi východojihovýchodním a jižním
Teplota 9°C
Vlhkost vzduchu 93%
Tlak 1014 hPa
Viditelnost 10 km a více
Oblačno až skoro zataženo ve výšce 1800 ft

METAR: ESSL 240450Z 15005KT 120V180 9999 BKN018 09/08 Q1014

Čas: 07:29 (05:29 UTC)

Předpověď počasí

Zpráva byla vytvořena před 1 hodinou a 59 minutami, v 03:30 UTC
Předpověď platná od 24 v 04 UTC do 24 v 12 UTC
Jižní vítr 7 kt
Viditelnost 10 km a více
Oblačno až skoro zataženo ve výšce 3000 ft
Pravděpodobnost 40%
od 24 v 07 UTC do 24 v 11 UTC
Oblačno až skoro zataženo ve výšce 800 ft

TAF: ESSL 240330Z 2404/2412 18007KT 9999 BKN030 PROB40 2407/2411 BKN008

Stav a předpovědi počasí z více než 4 000 letišť (zprávy METAR a TAF).

Červené a žluté tečky na mapě představují dostupné meteorologické stanice.

Když kurzor umístíte na tečku, zobrazí se název stanice.

Pak kliknutím zobrazíte stav a předpověď počasí.

Chcete-li změnit mapu, kliknutím na zelené tlačítko se znaménkem +mapu přiblížíte, kliknutím na zelené tlačítko se znaménkem – mapu oddálíte a kliknutím na zelené šipky přejdete na sousední mapy.


METAR-TAF: